createdAt,value
2017-06-25T00:02:23.243Z,3.55
2017-06-25T00:04:51.328Z,3.30
2017-06-25T00:07:19.385Z,3.45
2017-06-25T00:09:48.982Z,3.00
2017-06-25T00:12:17.087Z,2.80
2017-06-25T00:14:45.192Z,2.85
2017-06-25T00:17:13.290Z,3.22
2017-06-25T00:19:41.363Z,2.97
2017-06-25T00:22:09.491Z,4.05
2017-06-25T00:24:37.836Z,2.83
2017-06-25T00:27:06.111Z,3.15
2017-06-25T00:29:34.348Z,3.03
2017-06-25T00:32:02.535Z,2.92
2017-06-25T00:34:30.823Z,3.30
2017-06-25T00:36:59.007Z,3.12
2017-06-25T00:39:28.658Z,2.97
2017-06-25T00:41:57.774Z,3.05
2017-06-25T00:44:25.850Z,3.00
2017-06-25T00:46:53.933Z,2.70
2017-06-25T00:49:21.982Z,3.60
2017-06-25T00:51:50.071Z,3.05
2017-06-25T00:54:23.880Z,3.20
2017-06-25T00:56:51.991Z,3.00
2017-06-25T00:59:20.823Z,2.97
2017-06-25T01:01:48.901Z,2.85
2017-06-25T01:04:16.969Z,3.12
2017-06-25T01:06:45.828Z,3.10
2017-06-25T01:09:14.302Z,3.90
2017-06-25T01:11:42.357Z,3.47
2017-06-25T01:14:10.433Z,3.15
2017-06-25T01:16:38.534Z,3.03
2017-06-25T01:19:07.367Z,3.58
2017-06-25T01:21:35.450Z,3.25
2017-06-25T01:24:03.535Z,3.53
2017-06-25T01:26:32.252Z,2.90
2017-06-25T01:29:00.537Z,2.80
2017-06-25T01:31:29.972Z,3.60
2017-06-25T01:33:58.545Z,3.15
2017-06-25T01:36:27.235Z,3.33
2017-06-25T01:38:55.781Z,3.50
2017-06-25T01:44:02.181Z,3.60
2017-06-25T01:46:31.620Z,2.92
2017-06-25T01:48:59.586Z,4.12
2017-06-25T01:51:27.675Z,3.40
2017-06-25T01:53:55.741Z,3.78
2017-06-25T01:56:24.701Z,3.20
2017-06-25T01:58:52.749Z,3.10
2017-06-25T02:01:21.655Z,3.95
2017-06-25T02:03:49.746Z,3.20
2017-06-25T02:06:19.339Z,3.35
2017-06-25T02:08:47.423Z,3.50
2017-06-25T02:11:15.497Z,4.12
2017-06-25T02:13:43.716Z,3.78
2017-06-25T02:16:11.795Z,3.90
2017-06-25T02:18:39.936Z,3.95
2017-06-25T02:21:08.036Z,3.53
2017-06-25T02:23:37.596Z,3.62
2017-06-25T02:26:05.680Z,3.60
2017-06-25T02:28:33.779Z,3.50
2017-06-25T02:31:01.853Z,3.40
2017-06-25T02:33:29.930Z,3.62
2017-06-25T02:35:58.036Z,4.45
2017-06-25T02:38:26.904Z,3.75
2017-06-25T02:40:54.976Z,3.50
2017-06-25T02:43:23.096Z,3.55
2017-06-25T02:45:52.493Z,3.62
2017-06-25T02:48:20.470Z,3.53
2017-06-25T02:50:48.671Z,3.67
2017-06-25T02:53:17.927Z,3.33
2017-06-25T02:55:46.018Z,3.97
2017-06-25T02:58:14.478Z,3.97
2017-06-25T03:00:42.566Z,3.67
2017-06-25T03:03:12.151Z,3.70
2017-06-25T03:05:40.240Z,3.50
2017-06-25T03:08:08.334Z,3.20
2017-06-25T03:10:36.411Z,4.00
2017-06-25T03:13:04.528Z,3.80
2017-06-25T03:15:32.610Z,3.10
2017-06-25T03:18:01.043Z,4.07
2017-06-25T03:20:29.949Z,3.70
2017-06-25T03:22:58.038Z,3.62
2017-06-25T03:25:26.108Z,3.17
2017-06-25T03:27:54.222Z,3.87
2017-06-25T03:30:22.314Z,3.25
2017-06-25T03:32:50.410Z,3.45
2017-06-25T03:35:18.500Z,3.30
2017-06-25T03:37:47.753Z,4.10
2017-06-25T03:40:15.927Z,3.42
2017-06-25T03:42:44.126Z,3.40
2017-06-25T03:45:12.290Z,3.35
2017-06-25T03:47:40.502Z,3.05
2017-06-25T03:50:10.386Z,2.90
2017-06-25T03:52:38.446Z,3.15
2017-06-25T03:55:06.950Z,3.42
2017-06-25T03:57:35.010Z,3.33
2017-06-25T04:00:03.078Z,3.45
2017-06-25T04:02:31.167Z,3.60
2017-06-25T04:04:59.254Z,3.28
2017-06-25T04:07:27.372Z,3.45
2017-06-25T04:09:56.783Z,3.37
2017-06-25T04:12:25.554Z,3.55
2017-06-25T04:14:53.628Z,3.37
2017-06-25T04:17:21.687Z,3.50
2017-06-25T04:19:49.846Z,3.05
2017-06-25T04:22:19.471Z,3.28
2017-06-25T04:24:47.903Z,2.92
2017-06-25T04:27:16.074Z,3.62
2017-06-25T04:29:44.178Z,3.53
2017-06-25T04:32:12.263Z,2.80
2017-06-25T04:34:41.132Z,3.58
2017-06-25T04:37:09.602Z,3.20
2017-06-25T04:39:37.676Z,3.28
2017-06-25T04:42:06.203Z,3.55
2017-06-25T04:44:34.488Z,3.55
2017-06-25T04:47:03.418Z,3.80
2017-06-25T04:49:32.783Z,3.35
2017-06-25T04:52:01.009Z,4.05
2017-06-25T04:54:30.777Z,3.80
2017-06-25T04:56:58.895Z,3.62
2017-06-25T04:59:26.970Z,3.33
2017-06-25T05:01:55.042Z,3.17
2017-06-25T05:04:23.168Z,3.70
2017-06-25T05:06:51.238Z,3.45
2017-06-25T05:09:19.727Z,3.60
2017-06-25T05:11:47.833Z,3.92
2017-06-25T05:14:15.968Z,3.35
2017-06-25T05:16:44.838Z,3.55
2017-06-25T05:19:12.930Z,4.28
2017-06-25T05:21:41.022Z,3.30
2017-06-25T05:24:10.611Z,3.30
2017-06-25T05:26:38.719Z,3.60
2017-06-25T05:29:08.134Z,3.60
2017-06-25T05:31:37.499Z,3.25
2017-06-25T05:34:05.459Z,3.50
2017-06-25T05:36:33.567Z,3.50
2017-06-25T05:39:01.623Z,3.05
2017-06-25T05:41:29.685Z,3.50
2017-06-25T05:43:57.758Z,3.25
2017-06-25T05:46:25.836Z,3.40
2017-06-25T05:48:53.943Z,3.67
2017-06-25T05:51:22.790Z,3.90
2017-06-25T05:53:50.875Z,4.22
2017-06-25T05:56:19.367Z,3.35
2017-06-25T05:58:48.201Z,3.15
2017-06-25T06:01:17.051Z,4.78
2017-06-25T06:03:46.461Z,3.90
2017-06-25T06:06:14.448Z,3.55
2017-06-25T06:08:42.502Z,3.22
2017-06-25T06:11:10.609Z,3.58
2017-06-25T06:13:39.814Z,4.25
2017-06-25T06:16:07.882Z,3.55
2017-06-25T06:18:35.957Z,4.78
2017-06-25T06:21:04.014Z,3.53
2017-06-25T06:23:32.481Z,4.30
2017-06-25T06:26:01.307Z,3.62
2017-06-25T06:28:30.166Z,4.00
2017-06-25T06:30:58.990Z,3.67
2017-06-25T06:33:27.145Z,3.20
2017-06-25T06:35:55.617Z,3.40
2017-06-25T06:38:24.478Z,3.37
2017-06-25T06:40:52.546Z,3.60
2017-06-25T06:43:20.597Z,3.33
2017-06-25T06:45:48.670Z,3.40
2017-06-25T06:48:17.922Z,4.10
2017-06-25T06:50:46.006Z,3.62
2017-06-25T06:53:14.466Z,3.45
2017-06-25T06:55:43.311Z,3.35
2017-06-25T06:58:11.373Z,3.05
2017-06-25T07:00:39.438Z,3.97
2017-06-25T07:03:07.519Z,3.47
2017-06-25T07:05:35.575Z,3.35
2017-06-25T07:08:04.054Z,3.50
2017-06-25T07:10:32.130Z,4.43
2017-06-25T07:13:00.206Z,3.25
2017-06-25T07:15:28.262Z,3.83
2017-06-25T07:17:56.340Z,3.65
2017-06-25T07:20:24.412Z,3.30
2017-06-25T07:22:52.494Z,4.20
2017-06-25T07:25:20.576Z,3.30
2017-06-25T07:27:49.029Z,2.92
2017-06-25T07:30:17.106Z,3.53
2017-06-25T07:32:45.166Z,2.95
2017-06-25T07:35:14.386Z,3.35
2017-06-25T07:37:42.446Z,3.33
2017-06-25T07:40:10.526Z,3.08
2017-06-25T07:42:38.594Z,2.85
2017-06-25T07:45:06.663Z,2.45
2017-06-25T07:47:35.134Z,3.08
2017-06-25T07:50:03.867Z,3.15
2017-06-25T07:52:32.141Z,2.70
2017-06-25T07:55:00.242Z,3.03
2017-06-25T07:57:28.323Z,2.60
2017-06-25T07:59:57.518Z,3.15
2017-06-25T08:02:25.601Z,3.20
2017-06-25T08:04:54.426Z,3.10
2017-06-25T08:07:22.514Z,2.95
2017-06-25T08:09:50.566Z,3.30
2017-06-25T08:12:18.622Z,2.72
2017-06-25T08:14:48.041Z,3.47
2017-06-25T08:17:16.002Z,2.72
2017-06-25T08:19:44.085Z,3.08
2017-06-25T08:22:12.146Z,2.60
2017-06-25T08:24:40.202Z,2.90
2017-06-25T08:27:08.364Z,3.37
2017-06-25T08:29:37.211Z,2.78
2017-06-25T08:32:05.298Z,2.90
2017-06-25T08:34:34.127Z,3.10
2017-06-25T08:37:02.613Z,2.75
2017-06-25T08:39:31.417Z,3.25
2017-06-25T08:41:59.514Z,3.40
2017-06-25T08:44:28.334Z,2.95
2017-06-25T08:46:56.385Z,2.80
2017-06-25T08:49:24.466Z,3.00
2017-06-25T08:51:52.630Z,2.50
2017-06-25T08:54:21.101Z,3.67
2017-06-25T08:56:49.158Z,3.37
2017-06-25T08:59:17.263Z,2.90
2017-06-25T09:01:45.323Z,3.00
2017-06-25T09:04:13.373Z,2.70
2017-06-25T09:06:41.454Z,3.58
2017-06-25T09:09:09.541Z,2.65
2017-06-25T09:11:37.613Z,3.03
2017-06-25T09:14:05.665Z,2.92
2017-06-25T09:16:33.731Z,2.78
2017-06-25T09:19:01.808Z,2.85
2017-06-25T09:21:29.866Z,2.83
2017-06-25T09:23:57.946Z,2.83
2017-06-25T09:26:26.021Z,2.53
2017-06-25T09:28:54.107Z,2.62
2017-06-25T09:31:22.202Z,2.85
2017-06-25T09:33:50.257Z,2.70
2017-06-25T09:36:18.374Z,2.60
2017-06-25T09:38:47.194Z,3.30
2017-06-25T09:41:15.247Z,2.47
2017-06-25T09:43:43.328Z,3.15
2017-06-25T09:46:11.419Z,3.50
2017-06-25T09:48:39.500Z,2.80
2017-06-25T09:51:07.554Z,3.10
2017-06-25T09:53:35.634Z,3.30
2017-06-25T09:56:03.698Z,2.62
2017-06-25T09:58:31.772Z,2.90
2017-06-25T10:00:59.831Z,2.50
2017-06-25T10:03:27.929Z,3.10
2017-06-25T10:05:55.982Z,2.45
2017-06-25T10:08:24.442Z,2.60
2017-06-25T10:10:53.286Z,2.30
2017-06-25T10:13:21.348Z,2.55
2017-06-25T10:15:49.437Z,2.70
2017-06-25T10:18:17.474Z,2.40
2017-06-25T10:20:45.564Z,2.58
2017-06-25T10:23:14.390Z,2.15
2017-06-25T10:25:42.517Z,1.98
2017-06-25T10:28:11.312Z,1.87
2017-06-25T10:30:39.378Z,1.98
2017-06-25T10:33:07.456Z,2.10
2017-06-25T10:35:36.026Z,2.03
2017-06-25T10:38:04.199Z,2.42
2017-06-25T10:40:32.282Z,2.30
2017-06-25T10:43:00.389Z,1.92
2017-06-25T10:45:28.462Z,2.12
2017-06-25T10:47:56.914Z,1.90
2017-06-25T10:50:24.994Z,2.35
2017-06-25T10:52:53.049Z,1.75
2017-06-25T10:55:21.154Z,2.40
2017-06-25T10:57:49.219Z,2.20
2017-06-25T11:00:17.310Z,2.33
2017-06-25T11:02:46.139Z,2.60
2017-06-25T11:05:14.585Z,1.80
2017-06-25T11:07:43.431Z,2.25
2017-06-25T11:10:11.513Z,2.20
2017-06-25T11:12:39.567Z,2.30
2017-06-25T11:15:08.065Z,1.62
2017-06-25T11:17:36.118Z,2.25
2017-06-25T11:20:04.178Z,2.00
2017-06-25T11:22:32.254Z,1.95
2017-06-25T11:25:00.729Z,2.60
2017-06-25T11:27:29.577Z,2.00
2017-06-25T11:29:58.121Z,1.50
2017-06-25T11:32:26.212Z,1.85
2017-06-25T11:34:54.394Z,1.60
2017-06-25T11:37:23.242Z,1.05
2017-06-25T11:39:51.547Z,1.70
2017-06-25T11:42:19.642Z,1.42
2017-06-25T11:44:47.716Z,1.23
2017-06-25T11:47:16.169Z,1.58
2017-06-25T11:49:44.251Z,1.30
2017-06-25T11:52:12.308Z,1.50
2017-06-25T11:54:40.778Z,1.12
2017-06-25T11:57:09.599Z,1.40
2017-06-25T11:59:37.683Z,1.75
2017-06-25T12:02:05.738Z,1.30
2017-06-25T12:04:33.809Z,1.00
2017-06-25T12:07:02.263Z,1.70
2017-06-25T12:09:30.337Z,1.10
2017-06-25T12:11:58.419Z,1.40
2017-06-25T12:14:26.500Z,1.20
2017-06-25T12:16:54.562Z,1.40
2017-06-25T12:19:22.634Z,1.58
2017-06-25T12:21:50.738Z,1.33
2017-06-25T12:24:19.583Z,1.55
2017-06-25T12:26:47.641Z,1.25
2017-06-25T12:29:15.716Z,1.25
2017-06-25T12:31:45.123Z,1.50
2017-06-25T12:34:13.105Z,1.10
2017-06-25T12:36:41.182Z,1.20
2017-06-25T12:39:09.663Z,0.90
2017-06-25T12:41:37.714Z,0.90
2017-06-25T12:44:05.765Z,1.00
2017-06-25T12:46:34.606Z,1.25
2017-06-25T12:49:02.671Z,1.08
2017-06-25T12:51:30.750Z,1.45
2017-06-25T12:53:58.823Z,1.20
2017-06-25T12:56:26.879Z,0.90
2017-06-25T12:58:54.959Z,1.30
2017-06-25T13:01:23.427Z,1.58
2017-06-25T13:03:51.491Z,1.17
2017-06-25T13:06:19.549Z,1.40
2017-06-25T13:08:47.634Z,1.10
2017-06-25T13:11:15.700Z,1.33
2017-06-25T13:13:43.758Z,1.35
2017-06-25T13:16:12.601Z,1.30
2017-06-25T13:18:40.670Z,1.10
2017-06-25T13:21:08.756Z,1.55
2017-06-25T13:23:38.323Z,1.30
2017-06-25T13:26:06.403Z,1.65
2017-06-25T13:28:34.465Z,1.58
2017-06-25T13:31:02.950Z,1.33
2017-06-25T13:33:31.014Z,1.55
2017-06-25T13:35:59.071Z,1.52
2017-06-25T13:38:27.150Z,1.80
2017-06-25T13:40:55.602Z,1.30
2017-06-25T13:43:24.446Z,1.55
2017-06-25T13:45:52.518Z,1.30
2017-06-25T13:48:20.579Z,1.50
2017-06-25T13:50:48.653Z,1.55
2017-06-25T13:53:17.548Z,1.30
2017-06-25T13:55:46.371Z,2.20
2017-06-25T13:58:14.458Z,1.27
2017-06-25T14:00:43.283Z,1.50
2017-06-25T14:03:11.451Z,1.45
2017-06-25T14:05:39.482Z,1.70
2017-06-25T14:08:07.550Z,1.55
2017-06-25T14:10:36.083Z,1.60
2017-06-25T14:13:04.134Z,1.60
2017-06-25T14:15:32.990Z,1.60
2017-06-25T14:18:01.043Z,1.30
2017-06-25T14:20:29.970Z,1.73
2017-06-25T14:22:58.125Z,1.50
2017-06-25T14:25:26.154Z,1.20
2017-06-25T14:27:54.253Z,1.60
2017-06-25T14:30:22.367Z,1.42
2017-06-25T14:32:51.638Z,1.40
2017-06-25T14:35:19.714Z,1.50
2017-06-25T14:37:47.786Z,1.15
2017-06-25T14:40:15.930Z,1.30
2017-06-25T14:42:44.019Z,1.33
2017-06-25T14:45:12.138Z,1.37
2017-06-25T14:47:40.200Z,1.30
2017-06-25T14:50:08.274Z,1.33
2017-06-25T14:52:37.093Z,1.10
2017-06-25T14:55:05.213Z,1.50
2017-06-25T14:57:33.263Z,1.55
2017-06-25T15:00:01.322Z,2.12
2017-06-25T15:02:29.510Z,1.75
2017-06-25T15:04:57.565Z,1.33
2017-06-25T15:07:25.773Z,2.03
2017-06-25T15:09:53.860Z,1.60
2017-06-25T15:12:22.014Z,1.33
2017-06-25T15:14:50.091Z,1.40
2017-06-25T15:17:18.238Z,1.50
2017-06-25T15:19:46.331Z,1.75
2017-06-25T15:22:14.543Z,1.35
2017-06-25T15:24:42.634Z,1.50
2017-06-25T15:27:11.513Z,2.17
2017-06-25T15:29:40.383Z,1.10
2017-06-25T15:32:08.514Z,1.48
2017-06-25T15:34:36.598Z,1.83
2017-06-25T15:37:04.654Z,2.35
2017-06-25T15:39:32.733Z,1.50
2017-06-25T15:42:00.855Z,1.73
2017-06-25T15:44:28.974Z,1.40
2017-06-25T15:46:57.074Z,2.65
2017-06-25T15:49:25.146Z,1.48
2017-06-25T15:51:53.310Z,2.12
2017-06-25T15:54:21.385Z,1.50
2017-06-25T15:56:49.545Z,1.40
2017-06-25T15:59:17.655Z,1.40
2017-06-25T16:01:45.712Z,1.80
2017-06-25T16:04:13.878Z,2.30
2017-06-25T16:06:42.006Z,1.80
2017-06-25T16:09:10.078Z,1.70
2017-06-25T16:11:38.294Z,1.17
2017-06-25T16:14:06.354Z,1.67
2017-06-25T16:16:34.418Z,1.83
2017-06-25T16:19:02.532Z,1.50
2017-06-25T16:21:30.672Z,1.58
2017-06-25T16:23:58.762Z,1.48
2017-06-25T16:26:26.918Z,1.60
2017-06-25T16:28:55.103Z,1.70
2017-06-25T16:31:23.206Z,1.70
2017-06-25T16:33:51.318Z,1.55
2017-06-25T16:36:19.442Z,1.35
2017-06-25T16:38:47.596Z,1.30
2017-06-25T16:41:15.721Z,1.50
2017-06-25T16:43:44.682Z,1.40
2017-06-25T16:46:12.832Z,1.40
2017-06-25T16:48:40.885Z,1.30
2017-06-25T16:51:09.470Z,2.42
2017-06-25T16:53:37.553Z,1.30
2017-06-25T16:56:05.638Z,1.30
2017-06-25T16:58:33.762Z,1.20
2017-06-25T17:01:02.586Z,1.40
2017-06-25T17:03:30.760Z,1.30
2017-06-25T17:05:58.845Z,1.20
2017-06-25T17:08:26.938Z,1.27
2017-06-25T17:10:55.077Z,1.45
2017-06-25T17:13:23.177Z,1.58
2017-06-25T17:15:51.258Z,1.25
2017-06-25T17:18:19.310Z,1.60
2017-06-25T17:20:47.385Z,1.70
2017-06-25T17:23:15.442Z,1.50
2017-06-25T17:25:43.544Z,2.03
2017-06-25T17:28:11.597Z,1.70
2017-06-25T17:30:39.682Z,1.48
2017-06-25T17:33:08.502Z,1.30
2017-06-25T17:35:36.582Z,1.15
2017-06-25T17:38:05.530Z,1.35
2017-06-25T17:40:33.630Z,1.52
2017-06-25T17:43:02.478Z,1.42
2017-06-25T17:45:31.377Z,1.85
2017-06-25T17:48:00.260Z,1.45
2017-06-25T17:50:28.337Z,1.90
2017-06-25T17:52:56.834Z,1.90
2017-06-25T17:55:24.941Z,1.30
2017-06-25T17:57:53.022Z,1.65
2017-06-25T18:00:21.095Z,1.10
2017-06-25T18:02:49.922Z,1.45
2017-06-25T18:05:17.990Z,1.30
2017-06-25T18:07:47.447Z,1.33
2017-06-25T18:10:16.232Z,1.75
2017-06-25T18:12:44.477Z,1.77
2017-06-25T18:15:12.672Z,1.80
2017-06-25T18:17:41.150Z,1.20
2017-06-25T18:20:09.699Z,1.23
2017-06-25T18:22:37.802Z,1.73
2017-06-25T18:25:06.425Z,1.27
2017-06-25T18:27:34.552Z,1.27
2017-06-25T18:30:02.695Z,1.35
2017-06-25T18:32:31.562Z,1.15
2017-06-25T18:34:59.686Z,1.30
2017-06-25T18:37:28.158Z,1.60
2017-06-25T18:39:56.221Z,1.25
2017-06-25T18:42:24.332Z,1.45
2017-06-25T18:44:52.819Z,1.40
2017-06-25T18:47:22.051Z,1.30
2017-06-25T18:49:51.996Z,1.35
2017-06-25T18:52:19.996Z,1.98
2017-06-25T18:54:48.182Z,1.40
2017-06-25T18:57:16.247Z,1.23
2017-06-25T18:59:44.384Z,1.55
2017-06-25T19:02:12.486Z,1.17
2017-06-25T19:04:40.612Z,1.15
2017-06-25T19:07:08.698Z,1.10
2017-06-25T19:09:37.533Z,1.00
2017-06-25T19:12:05.663Z,1.40
2017-06-25T19:14:33.729Z,1.35
2017-06-25T19:17:01.808Z,1.50
2017-06-25T19:19:29.954Z,1.33
2017-06-25T19:21:58.145Z,1.52
2017-06-25T19:24:26.234Z,1.42
2017-06-25T19:27:00.865Z,1.50
2017-06-25T19:29:29.403Z,1.65
2017-06-25T19:31:57.482Z,1.50
2017-06-25T19:34:26.339Z,1.20
2017-06-25T19:36:54.390Z,1.75
2017-06-25T19:39:22.488Z,1.65
2017-06-25T19:41:50.988Z,2.10
2017-06-25T19:44:19.445Z,1.45
2017-06-25T19:46:47.506Z,1.40
2017-06-25T19:49:15.598Z,1.83
2017-06-25T19:51:48.458Z,1.48
2017-06-25T19:54:16.537Z,1.37
2017-06-25T19:56:44.820Z,1.62
2017-06-25T19:59:14.226Z,1.55
2017-06-25T20:01:48.666Z,1.65
2017-06-25T20:04:16.775Z,1.80
2017-06-25T20:06:44.844Z,1.62
2017-06-25T20:09:12.918Z,1.70
2017-06-25T20:11:40.974Z,1.65
2017-06-25T20:14:09.479Z,1.80
2017-06-25T20:16:37.930Z,1.37
2017-06-25T20:19:05.994Z,1.23
2017-06-25T20:21:34.079Z,1.30
2017-06-25T20:24:02.136Z,1.87
2017-06-25T20:26:30.220Z,1.90
2017-06-25T20:28:58.295Z,2.05
2017-06-25T20:31:27.370Z,2.90
2017-06-25T20:33:56.226Z,2.05
2017-06-25T20:36:24.282Z,1.52
2017-06-25T20:38:52.363Z,1.50
2017-06-25T20:41:25.809Z,1.37
2017-06-25T20:43:53.926Z,1.33
2017-06-25T20:46:21.987Z,1.75
2017-06-25T20:48:50.098Z,1.90
2017-06-25T20:51:18.163Z,1.58
2017-06-25T20:53:46.249Z,1.40
2017-06-25T20:56:15.154Z,1.40
2017-06-25T20:58:43.291Z,1.35
2017-06-25T21:01:11.417Z,1.30
2017-06-25T21:03:40.229Z,1.55
2017-06-25T21:06:08.343Z,1.75
2017-06-25T21:08:37.799Z,1.48
2017-06-25T21:11:05.917Z,1.35
2017-06-25T21:13:33.981Z,1.20
2017-06-25T21:16:02.130Z,1.30
2017-06-25T21:18:30.297Z,1.30
2017-06-25T21:20:58.386Z,1.50
2017-06-25T21:23:26.510Z,1.48
2017-06-25T21:25:55.388Z,1.50
2017-06-25T21:28:23.587Z,1.52
2017-06-25T21:30:52.411Z,1.58
2017-06-25T21:33:20.543Z,1.67
2017-06-25T21:35:48.603Z,1.75
2017-06-25T21:38:17.514Z,1.02
2017-06-25T21:40:45.616Z,1.87
2017-06-25T21:43:13.706Z,1.45
2017-06-25T21:45:42.669Z,1.75
2017-06-25T21:48:10.768Z,1.52
2017-06-25T21:50:39.637Z,1.23
2017-06-25T21:53:09.121Z,1.55
2017-06-25T21:55:37.537Z,1.15
2017-06-25T21:58:05.637Z,1.85
2017-06-25T22:00:33.936Z,2.05
2017-06-25T22:03:02.009Z,1.35
2017-06-25T22:05:30.847Z,1.40
2017-06-25T22:07:58.931Z,1.58
2017-06-25T22:10:27.087Z,1.20
2017-06-25T22:12:55.243Z,1.67
2017-06-25T22:15:23.425Z,1.65
2017-06-25T22:17:52.897Z,1.30
2017-06-25T22:20:20.967Z,1.40
2017-06-25T22:22:49.826Z,1.45
2017-06-25T22:25:17.978Z,1.52
2017-06-25T22:27:47.405Z,1.55
2017-06-25T22:30:15.480Z,1.45
2017-06-25T22:32:44.322Z,1.80
2017-06-25T22:35:12.479Z,1.50
2017-06-25T22:37:40.540Z,1.20
2017-06-25T22:40:08.618Z,1.70
2017-06-25T22:42:37.590Z,1.90
2017-06-25T22:45:05.650Z,1.30
2017-06-25T22:47:33.718Z,1.70
2017-06-25T22:50:02.960Z,1.33
2017-06-25T22:52:31.831Z,1.40
2017-06-25T22:54:59.961Z,1.60
2017-06-25T22:57:28.062Z,1.60
2017-06-25T22:59:57.689Z,1.65
2017-06-25T23:02:26.633Z,1.42
2017-06-25T23:04:54.811Z,1.33
2017-06-25T23:07:24.279Z,1.67
2017-06-25T23:09:53.826Z,1.65
2017-06-25T23:12:21.923Z,1.50
2017-06-25T23:14:50.014Z,1.40
2017-06-25T23:17:19.454Z,2.00
2017-06-25T23:19:47.459Z,1.80
2017-06-25T23:22:17.145Z,1.73
2017-06-25T23:24:45.202Z,2.00
2017-06-25T23:27:13.289Z,1.65
2017-06-25T23:29:41.351Z,1.60
2017-06-25T23:32:09.487Z,2.55
2017-06-25T23:34:39.133Z,1.50
2017-06-25T23:37:07.192Z,1.55
2017-06-25T23:39:35.710Z,1.52
2017-06-25T23:42:03.777Z,1.70
2017-06-25T23:44:31.854Z,1.45
2017-06-25T23:47:00.038Z,1.20
2017-06-25T23:49:28.066Z,1.65
2017-06-25T23:51:56.150Z,1.45
2017-06-25T23:54:24.605Z,1.40
2017-06-25T23:56:52.661Z,1.50
2017-06-25T23:59:20.820Z,1.73
